Mont Clare, Pennsylvania
Current Conditions -  °F | °C
As of 8:54 AM on Sunday 23 Nov 2014 (Local Time) from KPTW Reporting Station
Overcast Overcast  
Wind Chill: 37°   Ceiling: 7500
Heat Index: 41°   Visibility: 10mi
Dew Point: 23°   Wind: 6mph
Humidity: 49%   Direction: 180°S
Pressure: 30.24"   Gusts: NA
Location:  40.14°N, 75.5°W
Report Text: KPTW 231354Z AUTO 18005KT 10SM BKN075 OVC095 05/M05 A3024 RMK AO2 SLP239 T00501050
Loading
Personal Weather Stations






























Interactive Weather Map New forecast layout! Learn more

10-Day Weather Forecast

Advertisements
Track Severe Weather on mobile